PQI weather

Presque Isle International Airport
Presque Isle, Maine, United States

Public forecast

Using degrees Fahrenheit for public forecast. Weather courtesy of forecast.io.

Current aviation weather report (METAR) for Presque Isle International Airport

Retrieved 2020/02/28 00:56 UTC (30 minutes ago):

KPQI 280056Z AUTO 08008KT 8SM -SN BKN027 OVC033 M03/M05 A2923 RMK AO2 SLP928 P0000 T10281050

Aviation forecast (TAF) for Presque Isle International Airport

Retrieved 2020-02-28 00:22 UTC (1 hour ago):

TAF KPQI 272320Z 2800/2824 07015G24KT 2SM -SN BLSN OVC018 FM280400 35006KT 3SM -SN OVC017 FM280500 28008KT 4SM -SN BKN017 FM280600 26008KT 5SM -SHSN BKN020 FM280900 24009KT P6SM BKN045 FM281400 23011G19KT P6SM BKN040